createdAt,value
2023-03-23T00:00:25.703Z,6.69
2023-03-23T00:01:25.779Z,6.60
2023-03-23T00:02:25.964Z,6.59
2023-03-23T00:03:25.970Z,6.58
2023-03-23T00:04:26.070Z,6.31
2023-03-23T00:05:26.099Z,6.24
2023-03-23T00:06:26.175Z,6.31
2023-03-23T00:07:26.235Z,6.36
2023-03-23T00:08:26.302Z,6.49
2023-03-23T00:09:26.410Z,6.52
2023-03-23T00:10:26.463Z,6.75
2023-03-23T00:11:26.557Z,6.70
2023-03-23T00:12:26.616Z,6.60
2023-03-23T00:13:27.689Z,6.61
2023-03-23T00:14:26.677Z,6.62
2023-03-23T00:15:26.736Z,6.28
2023-03-23T00:16:26.755Z,6.30
2023-03-23T00:17:26.815Z,6.30
2023-03-23T00:18:26.788Z,6.10
2023-03-23T00:19:27.753Z,6.00
2023-03-23T00:20:26.878Z,5.81
2023-03-23T00:21:26.908Z,5.75
2023-03-23T00:22:26.926Z,5.84
2023-03-23T00:23:26.970Z,5.79
2023-03-23T00:24:26.979Z,5.85
2023-03-23T00:25:27.054Z,6.07
2023-03-23T00:26:27.061Z,6.02
2023-03-23T00:27:27.147Z,6.08
2023-03-23T00:28:27.172Z,5.96
2023-03-23T00:29:27.253Z,5.90
2023-03-23T00:30:27.341Z,5.82
2023-03-23T00:31:27.376Z,5.72
2023-03-23T00:32:27.461Z,5.57
2023-03-23T00:33:27.477Z,5.70
2023-03-23T00:34:27.596Z,5.47
2023-03-23T00:35:27.607Z,5.44
2023-03-23T00:36:27.660Z,5.42
2023-03-23T00:37:27.729Z,5.19
2023-03-23T00:38:27.754Z,5.11
2023-03-23T00:39:27.845Z,5.07
2023-03-23T00:40:27.893Z,5.02
2023-03-23T00:41:27.939Z,5.26
2023-03-23T00:42:27.968Z,5.29
2023-03-23T00:43:28.018Z,5.33
2023-03-23T00:44:28.109Z,5.35
2023-03-23T00:45:28.174Z,5.39
2023-03-23T00:46:28.196Z,5.44
2023-03-23T00:47:28.270Z,5.35
2023-03-23T00:48:28.330Z,5.49
2023-03-23T00:49:28.379Z,5.55
2023-03-23T00:50:33.806Z,5.48
2023-03-23T00:51:29.447Z,5.49
2023-03-23T00:52:28.466Z,5.51
2023-03-23T00:53:28.484Z,5.58
2023-03-23T00:54:28.514Z,5.67
2023-03-23T01:01:28.690Z,5.97
2023-03-23T01:02:28.712Z,5.85
2023-03-23T01:03:28.727Z,5.95
2023-03-23T01:04:28.781Z,6.02
2023-03-23T01:05:28.825Z,5.92
2023-03-23T01:06:28.906Z,6.00
2023-03-23T01:07:28.944Z,5.94
2023-03-23T01:08:28.987Z,6.04
2023-03-23T01:09:29.057Z,5.93
2023-03-23T01:10:29.147Z,5.86
2023-03-23T01:11:29.206Z,6.06
2023-03-23T01:12:29.312Z,6.00
2023-03-23T01:13:29.367Z,5.95
2023-03-23T01:14:29.443Z,5.98
2023-03-23T01:15:29.478Z,5.98
2023-03-23T01:16:29.578Z,5.96
2023-03-23T01:17:29.671Z,5.89
2023-03-23T01:18:33.968Z,5.81
2023-03-23T01:19:29.732Z,5.82
2023-03-23T01:20:29.758Z,5.83
2023-03-23T01:21:29.776Z,5.90
2023-03-23T01:22:29.836Z,5.97
2023-03-23T01:23:29.792Z,5.97
2023-03-23T01:24:29.806Z,6.00
2023-03-23T01:25:29.822Z,6.08
2023-03-23T01:26:29.863Z,6.02
2023-03-23T01:31:29.969Z,6.03
2023-03-23T01:32:29.966Z,5.98
2023-03-23T01:33:29.994Z,5.92
2023-03-23T01:34:30.039Z,5.91
2023-03-23T01:35:30.076Z,6.00
2023-03-23T01:36:30.086Z,5.86
2023-03-23T01:37:30.138Z,5.81
2023-03-23T01:53:31.004Z,5.71
2023-03-23T01:54:31.013Z,5.75
2023-03-23T01:55:31.097Z,5.68
2023-03-23T01:56:31.142Z,5.77
2023-03-23T01:57:31.186Z,5.71
2023-03-23T01:58:31.275Z,5.71
2023-03-23T01:59:31.314Z,5.66
2023-03-23T02:00:31.392Z,5.41
2023-03-23T02:01:31.451Z,5.29
2023-03-23T02:02:31.516Z,5.21
2023-03-23T02:03:31.587Z,5.18
2023-03-23T02:04:31.636Z,5.10
2023-03-23T02:05:31.720Z,5.20
2023-03-23T02:10:31.855Z,5.46
2023-03-23T02:11:31.929Z,5.57
2023-03-23T02:12:31.977Z,5.58
2023-03-23T02:13:32.023Z,5.56
2023-03-23T02:14:32.095Z,5.56
2023-03-23T02:15:32.209Z,5.59
2023-03-23T02:16:32.183Z,5.65
2023-03-23T02:17:32.268Z,5.67
2023-03-23T02:18:32.292Z,5.74
2023-03-23T02:19:32.347Z,5.62
2023-03-23T02:20:32.417Z,5.58
2023-03-23T02:21:32.452Z,5.54
2023-03-23T02:22:32.534Z,5.56
2023-03-23T02:23:32.549Z,5.69
2023-03-23T02:24:32.618Z,5.85
2023-03-23T02:25:32.648Z,5.75
2023-03-23T02:26:32.768Z,5.85
2023-03-23T02:27:32.756Z,5.90
2023-03-23T02:28:32.832Z,6.08
2023-03-23T02:29:32.917Z,5.82
2023-03-23T02:30:32.931Z,5.67
2023-03-23T02:31:32.982Z,5.76
2023-03-23T02:32:33.007Z,5.80
2023-03-23T02:33:33.075Z,5.74
2023-03-23T02:34:33.087Z,5.66
2023-03-23T02:35:33.212Z,5.72
2023-03-23T02:36:33.189Z,5.81
2023-03-23T02:37:33.255Z,5.79
2023-03-23T02:38:33.283Z,5.81
2023-03-23T02:39:33.368Z,5.99
2023-03-23T02:40:33.441Z,5.92
2023-03-23T02:41:33.428Z,5.74
2023-03-23T02:42:33.482Z,5.92
2023-03-23T02:43:35.246Z,5.92
2023-03-23T02:44:33.586Z,5.96
2023-03-23T02:45:33.615Z,5.97
2023-03-23T02:46:33.680Z,5.91
2023-03-23T02:47:33.734Z,6.01
2023-03-23T02:48:33.756Z,6.00
2023-03-23T02:49:33.804Z,6.09
2023-03-23T02:50:33.851Z,6.03
2023-03-23T02:51:33.946Z,6.14
2023-03-23T02:52:34.942Z,6.14
2023-03-23T02:53:33.987Z,6.14
2023-03-23T02:54:33.974Z,6.16
2023-03-23T02:55:34.020Z,6.15
2023-03-23T02:56:34.024Z,6.15
2023-03-23T02:57:40.298Z,6.17
2023-03-23T02:58:35.104Z,6.18
2023-03-23T02:59:34.109Z,6.19
2023-03-23T03:00:34.129Z,6.17
2023-03-23T03:01:34.150Z,6.07
2023-03-23T03:02:34.177Z,6.23
2023-03-23T03:07:34.321Z,6.14
2023-03-23T03:08:34.332Z,6.07
2023-03-23T03:09:34.393Z,6.04
2023-03-23T03:10:34.392Z,6.06
2023-03-23T03:11:34.401Z,6.11
2023-03-23T03:12:34.484Z,6.03
2023-03-23T03:13:34.534Z,5.98
2023-03-23T03:14:34.563Z,5.92
2023-03-23T03:15:34.620Z,5.99
2023-03-23T03:16:34.681Z,6.05
2023-03-23T03:17:34.701Z,6.03
2023-03-23T03:18:34.785Z,6.03
2023-03-23T03:19:34.828Z,6.04
2023-03-23T03:20:34.880Z,6.14
2023-03-23T03:21:34.911Z,6.12
2023-03-23T03:22:34.978Z,6.28
2023-03-23T03:23:35.035Z,6.25
2023-03-23T03:24:35.074Z,6.32
2023-03-23T03:25:35.115Z,6.24
2023-03-23T03:26:35.173Z,6.28
2023-03-23T03:27:35.225Z,6.29
2023-03-23T03:28:35.236Z,6.25
2023-03-23T03:29:35.270Z,6.31
2023-03-23T03:30:35.343Z,6.37
2023-03-23T03:31:35.403Z,6.47
2023-03-23T03:32:35.430Z,6.40
2023-03-23T03:33:35.478Z,6.56
2023-03-23T03:34:35.530Z,6.58
2023-03-23T03:46:36.127Z,7.04
2023-03-23T03:47:36.171Z,7.15
2023-03-23T03:48:36.229Z,7.10
2023-03-23T03:49:36.304Z,7.19
2023-03-23T03:50:36.343Z,7.29
2023-03-23T03:51:36.394Z,7.12
2023-03-23T03:52:36.428Z,7.16
2023-03-23T03:53:36.514Z,7.26
2023-03-23T03:54:36.545Z,7.38
2023-03-23T03:55:36.565Z,7.12
2023-03-23T03:56:36.596Z,7.14
2023-03-23T03:57:36.655Z,7.25
2023-03-23T03:58:36.719Z,7.23
2023-03-23T03:59:36.783Z,7.21
2023-03-23T04:00:36.798Z,7.16
2023-03-23T04:01:36.833Z,7.21
2023-03-23T04:02:36.838Z,7.25
2023-03-23T04:03:36.900Z,7.36
2023-03-23T04:04:36.954Z,7.40
2023-03-23T04:05:37.001Z,7.47
2023-03-23T04:06:37.002Z,7.52
2023-03-23T04:07:37.079Z,7.36
2023-03-23T04:08:37.074Z,7.48
2023-03-23T04:09:37.112Z,7.50
2023-03-23T04:10:37.113Z,7.42
2023-03-23T04:11:37.124Z,7.43
2023-03-23T04:12:37.148Z,7.41
2023-03-23T04:13:37.168Z,7.32
2023-03-23T04:14:37.190Z,7.23
2023-03-23T04:15:37.211Z,7.02
2023-03-23T04:20:37.270Z,6.95
2023-03-23T04:21:37.255Z,7.16
2023-03-23T04:22:37.283Z,7.06
2023-03-23T04:23:37.279Z,7.00
2023-03-23T04:24:56.264Z,7.26
2023-03-23T04:25:38.337Z,7.28
2023-03-23T04:26:37.360Z,7.32
2023-03-23T04:27:37.383Z,7.30
2023-03-23T04:28:37.401Z,7.17
2023-03-23T04:29:37.391Z,7.20
2023-03-23T04:30:37.473Z,7.12
2023-03-23T04:36:56.055Z,7.49
2023-03-23T04:37:38.528Z,7.51
2023-03-23T04:38:37.560Z,7.51
2023-03-23T04:39:37.570Z,7.57
2023-03-23T04:42:37.615Z,7.54
2023-03-23T04:43:37.631Z,7.70
2023-03-23T04:44:37.654Z,7.93
2023-03-23T04:45:37.652Z,7.82
2023-03-23T04:46:37.648Z,7.89
2023-03-23T04:47:37.675Z,7.71
2023-03-23T04:48:37.728Z,7.82
2023-03-23T04:49:37.813Z,8.02
2023-03-23T04:50:37.877Z,8.12
2023-03-23T04:51:37.957Z,7.89
2023-03-23T04:52:38.027Z,8.04
2023-03-23T04:53:38.169Z,7.91
2023-03-23T04:54:38.133Z,8.07
2023-03-23T04:55:38.210Z,8.21
2023-03-23T04:56:38.277Z,8.02
2023-03-23T04:57:38.364Z,8.13
2023-03-23T04:58:38.427Z,8.13
2023-03-23T04:59:38.449Z,8.33
2023-03-23T05:00:38.581Z,8.29
2023-03-23T05:01:38.612Z,8.34
2023-03-23T05:02:38.695Z,8.27
2023-03-23T05:03:38.793Z,8.21
2023-03-23T05:04:38.871Z,8.39
2023-03-23T05:05:38.937Z,8.34
2023-03-23T05:06:38.986Z,8.33
2023-03-23T05:07:39.027Z,8.14
2023-03-23T05:08:39.113Z,8.35
2023-03-23T05:09:39.238Z,8.22
2023-03-23T05:10:39.220Z,8.21
2023-03-23T05:11:39.296Z,8.17
2023-03-23T05:12:39.408Z,8.35
2023-03-23T05:13:39.399Z,8.21
2023-03-23T05:14:39.492Z,8.22
2023-03-23T05:15:39.964Z,8.28
2023-03-23T05:16:39.596Z,8.27
2023-03-23T05:17:39.671Z,8.35
2023-03-23T05:18:39.721Z,8.28
2023-03-23T05:19:39.840Z,8.36
2023-03-23T05:20:39.886Z,8.43
2023-03-23T05:21:39.944Z,8.68
2023-03-23T05:22:39.966Z,8.43
2023-03-23T05:23:40.034Z,8.73
2023-03-23T05:24:40.207Z,8.77
2023-03-23T05:27:40.294Z,8.73
2023-03-23T05:28:40.322Z,8.64
2023-03-23T05:29:40.416Z,8.75
2023-03-23T05:30:40.452Z,8.63
2023-03-23T05:31:40.503Z,8.68
2023-03-23T05:32:40.580Z,8.73
2023-03-23T05:33:40.664Z,8.75
2023-03-23T05:34:40.718Z,8.79
2023-03-23T05:35:41.143Z,8.69
2023-03-23T05:36:40.875Z,8.61
2023-03-23T05:42:41.124Z,9.46
2023-03-23T05:47:41.894Z,9.57
2023-03-23T05:48:41.422Z,9.56
2023-03-23T05:49:41.469Z,9.47
2023-03-23T05:50:41.557Z,10.00
2023-03-23T05:51:41.613Z,10.23
2023-03-23T05:52:41.646Z,10.25
2023-03-23T05:59:42.893Z,12.24
2023-03-23T06:00:48.751Z,12.48
2023-03-23T06:01:41.752Z,12.52
2023-03-23T06:02:42.768Z,12.55
2023-03-23T06:07:41.885Z,15.14
2023-03-23T06:08:41.941Z,15.15
2023-03-23T06:10:41.968Z,15.55
2023-03-23T06:11:41.966Z,15.82
2023-03-23T06:12:41.987Z,15.70
2023-03-23T06:13:42.003Z,15.59
2023-03-23T06:14:42.045Z,16.07
2023-03-23T06:16:42.092Z,17.03
2023-03-23T06:17:42.153Z,18.25
2023-03-23T06:18:42.165Z,18.38
2023-03-23T06:19:42.180Z,18.63
2023-03-23T06:20:42.220Z,18.06
2023-03-23T06:21:42.184Z,18.09
2023-03-23T06:22:42.196Z,18.14
2023-03-23T06:23:42.240Z,18.40
2023-03-23T06:24:42.308Z,18.73
2023-03-23T06:25:42.593Z,19.68
2023-03-23T06:26:42.427Z,19.77
2023-03-23T06:27:43.177Z,19.80
2023-03-23T06:31:42.789Z,20.23
2023-03-23T06:32:42.874Z,20.32
2023-03-23T06:33:42.976Z,20.70
2023-03-23T06:34:43.213Z,20.85
2023-03-23T06:35:43.280Z,23.60
2023-03-23T06:36:43.141Z,28.46
2023-03-23T06:37:43.221Z,29.73
2023-03-23T06:38:43.322Z,30.54
2023-03-23T06:39:43.782Z,31.77
2023-03-23T06:41:43.505Z,31.91
2023-03-23T06:42:43.623Z,31.05
2023-03-23T06:43:43.680Z,33.63
2023-03-23T06:44:43.736Z,35.01
2023-03-23T06:45:51.238Z,38.35
2023-03-23T06:46:43.785Z,38.45
2023-03-23T06:47:43.860Z,38.61
2023-03-23T06:48:43.819Z,38.88
2023-03-23T06:49:43.855Z,39.63
2023-03-23T06:52:43.917Z,45.99
2023-03-23T06:53:43.944Z,45.81
2023-03-23T06:54:44.730Z,46.24
2023-03-23T06:55:44.024Z,43.35
2023-03-23T06:57:44.022Z,44.53
2023-03-23T06:58:44.061Z,45.87
2023-03-23T07:00:44.049Z,47.69
2023-03-23T07:01:44.044Z,51.42
2023-03-23T07:02:44.048Z,52.28
2023-03-23T07:03:44.123Z,52.30
2023-03-23T07:04:45.109Z,52.42
2023-03-23T07:09:44.128Z,53.88
2023-03-23T07:10:44.286Z,54.79
2023-03-23T07:11:44.149Z,54.15
2023-03-23T07:12:44.169Z,54.04
2023-03-23T07:13:44.187Z,53.08
2023-03-23T07:14:44.189Z,51.97
2023-03-23T07:15:44.217Z,51.45
2023-03-23T07:16:44.244Z,51.47
2023-03-23T07:17:44.319Z,50.24
2023-03-23T07:18:44.327Z,48.21
2023-03-23T07:19:44.377Z,47.99
2023-03-23T07:22:44.517Z,45.43
2023-03-23T07:23:44.564Z,41.22
2023-03-23T07:24:44.608Z,36.27
2023-03-23T07:25:44.662Z,35.83
2023-03-23T07:26:44.693Z,36.12
2023-03-23T07:27:44.760Z,32.71
2023-03-23T07:28:44.809Z,30.11
2023-03-23T07:29:44.963Z,28.24
2023-03-23T07:31:44.968Z,24.10
2023-03-23T07:32:45.037Z,23.68
2023-03-23T07:33:45.079Z,23.41
2023-03-23T07:34:45.159Z,27.70
2023-03-23T07:35:45.620Z,27.71
2023-03-23T07:41:46.274Z,23.29
2023-03-23T07:45:45.737Z,22.34
2023-03-23T07:46:45.470Z,25.15
2023-03-23T07:47:45.497Z,26.03
2023-03-23T07:48:45.497Z,23.77
2023-03-23T07:49:45.489Z,16.02
2023-03-23T07:51:45.517Z,9.30
2023-03-23T07:52:45.517Z,8.27
2023-03-23T07:53:45.525Z,7.69
2023-03-23T07:54:45.526Z,11.28
2023-03-23T07:55:45.586Z,8.11
2023-03-23T07:57:45.608Z,19.40
2023-03-23T07:58:45.623Z,17.63
2023-03-23T07:59:45.594Z,17.72
2023-03-23T08:00:45.689Z,16.62
2023-03-23T08:03:47.317Z,10.70
2023-03-23T08:04:45.666Z,10.20
2023-03-23T08:05:45.733Z,9.17
2023-03-23T08:08:45.735Z,8.36
2023-03-23T08:09:45.737Z,10.39
2023-03-23T08:10:45.759Z,9.48
2023-03-23T08:11:46.284Z,10.00
2023-03-23T08:15:45.985Z,9.21
2023-03-23T08:16:46.028Z,8.86
2023-03-23T08:17:46.054Z,8.49
2023-03-23T08:18:46.167Z,8.71
2023-03-23T08:19:46.216Z,9.03
2023-03-23T08:20:46.326Z,8.62
2023-03-23T08:21:46.342Z,8.02
2023-03-23T08:22:53.290Z,8.64
2023-03-23T08:24:46.390Z,8.23
2023-03-23T08:25:46.451Z,8.22
2023-03-23T08:26:46.794Z,7.44
2023-03-23T08:33:46.578Z,8.31
2023-03-23T08:34:46.649Z,9.56
2023-03-23T08:35:46.712Z,10.77
2023-03-23T08:36:46.750Z,11.72
2023-03-23T08:37:46.779Z,12.27
2023-03-23T08:38:46.878Z,12.62
2023-03-23T08:39:46.942Z,12.44
2023-03-23T08:40:46.971Z,11.62
2023-03-23T08:41:47.284Z,11.81
2023-03-23T08:44:47.132Z,10.21
2023-03-23T08:45:47.181Z,10.63
2023-03-23T08:47:48.364Z,10.72
2023-03-23T08:51:47.307Z,3.78
2023-03-23T08:52:47.330Z,2.79
2023-03-23T08:53:47.393Z,2.39
2023-03-23T08:54:47.419Z,1.76
2023-03-23T08:55:47.417Z,1.56
2023-03-23T08:56:47.541Z,1.40
2023-03-23T09:01:47.796Z,1.02
2023-03-23T09:05:47.733Z,0.98
2023-03-23T09:06:47.772Z,1.02
2023-03-23T09:07:47.803Z,1.08
2023-03-23T09:08:47.838Z,1.09
2023-03-23T09:09:47.842Z,1.12
2023-03-23T09:11:47.938Z,1.04
2023-03-23T09:12:47.944Z,0.99
2023-03-23T09:13:47.969Z,0.86
2023-03-23T09:14:48.053Z,0.92
2023-03-23T09:15:55.159Z,1.10
2023-03-23T09:16:49.115Z,1.11
2023-03-23T09:19:48.158Z,1.50
2023-03-23T09:20:49.232Z,1.11
2023-03-23T09:25:48.310Z,0.73
2023-03-23T09:26:48.365Z,0.66
2023-03-23T09:27:48.383Z,0.67
2023-03-23T09:28:48.416Z,0.75
2023-03-23T09:29:48.431Z,0.79
2023-03-23T09:30:53.361Z,0.83
2023-03-23T09:31:49.770Z,0.84
2023-03-23T09:34:48.577Z,1.42
2023-03-23T09:35:48.679Z,2.36
2023-03-23T09:36:48.646Z,2.94
2023-03-23T09:37:48.650Z,3.13
2023-03-23T09:38:48.661Z,3.58
2023-03-23T09:39:48.672Z,4.55
2023-03-23T09:40:49.683Z,4.57
2023-03-23T09:41:48.736Z,4.62
2023-03-23T09:43:48.730Z,3.85
2023-03-23T09:44:48.793Z,3.45
2023-03-23T09:45:48.789Z,2.84
2023-03-23T09:46:48.801Z,2.41
2023-03-23T09:47:48.818Z,2.91
2023-03-23T09:48:48.872Z,3.21
2023-03-23T09:51:49.302Z,3.78
2023-03-23T09:52:49.018Z,4.09
2023-03-23T09:53:49.066Z,3.84
2023-03-23T09:54:49.198Z,3.81
2023-03-23T09:55:49.175Z,4.65
2023-03-23T09:56:49.237Z,4.58
2023-03-23T09:57:49.294Z,3.80
2023-03-23T09:58:49.350Z,3.67
2023-03-23T09:59:49.422Z,4.48
2023-03-23T10:00:49.591Z,4.45
2023-03-23T10:01:49.847Z,4.32
2023-03-23T10:02:49.612Z,3.89
2023-03-23T10:03:49.688Z,3.42
2023-03-23T10:04:49.730Z,3.90
2023-03-23T10:05:49.829Z,3.86
2023-03-23T10:06:49.858Z,4.30
2023-03-23T10:07:49.933Z,4.89
2023-03-23T10:08:57.153Z,5.60
2023-03-23T10:09:51.010Z,5.63
2023-03-23T10:10:50.020Z,5.69
2023-03-23T10:11:50.065Z,5.89
2023-03-23T10:15:50.084Z,6.41
2023-03-23T10:16:50.097Z,6.37
2023-03-23T10:18:50.075Z,6.85
2023-03-23T10:19:50.108Z,7.17
2023-03-23T10:20:50.114Z,7.54
2023-03-23T10:21:50.327Z,7.53
2023-03-23T10:25:50.276Z,7.71
2023-03-23T10:26:50.334Z,7.87
2023-03-23T10:27:50.303Z,7.46
2023-03-23T10:28:50.379Z,7.28
2023-03-23T10:29:50.396Z,4.41
2023-03-23T10:30:50.422Z,2.92
2023-03-23T10:31:50.487Z,2.75
2023-03-23T10:32:50.508Z,1.96
2023-03-23T10:33:50.560Z,2.05
2023-03-23T10:34:50.588Z,2.12
2023-03-23T10:35:50.734Z,2.60
2023-03-23T10:36:50.840Z,2.04
2023-03-23T10:40:50.931Z,2.17
2023-03-23T10:41:51.365Z,2.09
2023-03-23T10:42:51.030Z,2.00
2023-03-23T10:43:51.104Z,2.23
2023-03-23T10:44:51.104Z,2.72
2023-03-23T10:46:00.257Z,3.20
2023-03-23T10:46:52.446Z,3.22
2023-03-23T10:48:51.182Z,3.19
2023-03-23T10:49:51.245Z,2.60
2023-03-23T10:50:51.209Z,1.64
2023-03-23T10:51:51.352Z,1.55
2023-03-23T10:55:51.288Z,0.99
2023-03-23T10:57:01.811Z,0.94
2023-03-23T10:57:52.276Z,0.94
2023-03-23T10:58:51.366Z,0.87
2023-03-23T11:01:51.373Z,0.63
2023-03-23T11:03:51.378Z,0.54
2023-03-23T11:04:51.414Z,0.59
2023-03-23T11:05:51.429Z,0.71
2023-03-23T11:06:51.462Z,0.92
2023-03-23T11:07:51.477Z,1.17
2023-03-23T11:08:51.476Z,1.25
2023-03-23T11:09:51.505Z,1.36
2023-03-23T11:10:52.518Z,1.89
2023-03-23T11:11:53.332Z,1.83
2023-03-23T11:12:51.679Z,1.84
2023-03-23T11:13:51.676Z,1.89
2023-03-23T11:14:51.669Z,1.81
2023-03-23T11:15:51.680Z,1.76
2023-03-23T11:16:51.826Z,2.39
2023-03-23T11:18:51.752Z,2.54
2023-03-23T11:19:51.752Z,1.96
2023-03-23T11:20:51.766Z,1.35
2023-03-23T11:21:51.844Z,1.10
2023-03-23T11:23:57.878Z,0.98
2023-03-23T11:24:52.848Z,0.84
2023-03-23T11:25:51.858Z,1.05
2023-03-23T11:26:58.785Z,1.17
2023-03-23T11:27:52.913Z,1.01
2023-03-23T11:28:51.916Z,1.18
2023-03-23T11:29:58.185Z,1.35
2023-03-23T11:30:52.962Z,1.01
2023-03-23T11:34:52.019Z,0.77
2023-03-23T11:35:52.018Z,0.54
2023-03-23T11:36:52.023Z,0.68
2023-03-23T11:37:52.357Z,1.31
2023-03-23T11:39:52.143Z,1.41
2023-03-23T11:43:52.134Z,0.55
2023-03-23T11:44:52.212Z,0.38
2023-03-23T11:45:52.340Z,0.43
2023-03-23T11:46:52.356Z,0.36
2023-03-23T11:47:52.436Z,0.37
2023-03-23T11:48:52.504Z,0.34
2023-03-23T11:49:52.588Z,0.39
2023-03-23T11:50:52.623Z,0.49
2023-03-23T11:51:52.683Z,0.51
2023-03-23T11:52:52.864Z,0.55
2023-03-23T11:57:53.133Z,0.54
2023-03-23T11:58:53.225Z,0.50
2023-03-23T11:59:53.315Z,0.51
2023-03-23T12:00:53.389Z,0.54
2023-03-23T12:01:53.446Z,0.53
2023-03-23T12:02:53.514Z,0.51
2023-03-23T12:03:53.582Z,0.51
2023-03-23T12:04:53.674Z,0.55
2023-03-23T12:05:53.749Z,0.60
2023-03-23T12:06:53.841Z,0.57
2023-03-23T12:07:53.926Z,0.55
2023-03-23T12:08:54.030Z,0.50
2023-03-23T12:09:54.079Z,0.53
2023-03-23T12:10:57.107Z,0.60
2023-03-23T12:11:54.158Z,0.63
2023-03-23T12:12:54.409Z,0.58
2023-03-23T12:15:54.240Z,0.50
2023-03-23T12:16:54.297Z,0.53
2023-03-23T12:17:54.343Z,0.56
2023-03-23T12:18:54.468Z,0.68
2023-03-23T12:19:54.359Z,0.77
2023-03-23T12:20:54.424Z,0.93
2023-03-23T12:21:54.403Z,0.99
2023-03-23T12:22:54.434Z,1.21
2023-03-23T12:25:54.490Z,1.69
2023-03-23T12:26:54.492Z,1.77
2023-03-23T12:27:54.883Z,1.56
2023-03-23T12:28:54.583Z,1.80
2023-03-23T12:29:54.555Z,1.73
2023-03-23T12:30:54.763Z,1.92
2023-03-23T12:31:54.627Z,2.47
2023-03-23T12:32:54.867Z,3.49
2023-03-23T12:33:54.610Z,3.48
2023-03-23T12:34:54.654Z,4.23
2023-03-23T12:35:54.675Z,5.33
2023-03-23T12:36:54.679Z,5.23
2023-03-23T12:37:54.848Z,5.27
2023-03-23T12:45:54.798Z,7.26
2023-03-23T12:46:54.844Z,7.21
2023-03-23T12:47:54.861Z,8.60
2023-03-23T12:48:54.865Z,8.73
2023-03-23T12:49:54.876Z,9.19
2023-03-23T12:50:54.882Z,9.57
2023-03-23T12:51:55.917Z,9.75
2023-03-23T12:52:54.953Z,8.84
2023-03-23T12:53:55.015Z,9.70
2023-03-23T12:54:55.110Z,9.46
2023-03-23T12:55:55.123Z,7.71
2023-03-23T12:56:55.229Z,6.93
2023-03-23T12:57:55.287Z,7.15
2023-03-23T12:58:55.335Z,7.64
2023-03-23T12:59:55.369Z,7.87
2023-03-23T13:00:55.477Z,8.38
2023-03-23T13:01:55.643Z,8.40
2023-03-23T13:03:55.765Z,8.81
2023-03-23T13:08:56.045Z,9.88
2023-03-23T13:09:57.423Z,9.76
2023-03-23T13:10:56.143Z,9.53
2023-03-23T13:11:56.254Z,7.64
2023-03-23T13:12:56.320Z,8.05
2023-03-23T13:13:56.382Z,8.80
2023-03-23T13:14:56.446Z,9.19
2023-03-23T13:15:56.483Z,10.10
2023-03-23T13:16:56.582Z,10.22
2023-03-23T13:17:56.659Z,10.16
2023-03-23T13:18:56.722Z,11.05
2023-03-23T13:19:56.782Z,12.30
2023-03-23T13:20:56.848Z,13.23
2023-03-23T13:21:56.897Z,12.86
2023-03-23T13:22:56.933Z,13.81
2023-03-23T13:23:57.013Z,16.70
2023-03-23T13:24:57.047Z,19.44
2023-03-23T13:25:57.110Z,19.68
2023-03-23T13:26:57.200Z,19.90
2023-03-23T13:27:57.232Z,22.54
2023-03-23T13:28:57.305Z,24.16
2023-03-23T13:34:57.384Z,19.44
2023-03-23T13:35:57.421Z,19.68
2023-03-23T13:36:57.352Z,22.48
2023-03-23T13:37:57.367Z,25.50
2023-03-23T13:38:57.379Z,26.06
2023-03-23T13:39:57.395Z,23.68
2023-03-23T13:40:57.428Z,24.26
2023-03-23T13:41:57.439Z,25.37
2023-03-23T13:43:57.484Z,28.19
2023-03-23T13:44:58.391Z,28.50
2023-03-23T13:45:57.501Z,30.17
2023-03-23T13:46:57.545Z,30.84
2023-03-23T13:48:57.699Z,38.27
2023-03-23T13:49:57.559Z,47.22
2023-03-23T13:50:57.616Z,44.00
2023-03-23T13:51:57.625Z,34.08
2023-03-23T13:52:57.688Z,31.62
2023-03-23T13:53:57.687Z,26.69
2023-03-23T13:57:57.713Z,21.60
2023-03-23T14:02:57.818Z,25.97
2023-03-23T14:03:57.827Z,25.73
2023-03-23T14:04:57.824Z,31.31
2023-03-23T14:05:57.876Z,32.00
2023-03-23T14:06:57.882Z,34.77
2023-03-23T14:11:57.946Z,27.56
2023-03-23T14:12:58.014Z,23.53
2023-03-23T14:13:57.996Z,24.17
2023-03-23T14:19:58.144Z,30.44
2023-03-23T14:20:58.187Z,29.50
2023-03-23T14:21:58.261Z,29.13
2023-03-23T14:22:58.322Z,28.04
2023-03-23T14:23:58.348Z,30.56
2023-03-23T14:24:58.405Z,32.46
2023-03-23T14:25:58.453Z,31.85
2023-03-23T14:26:58.497Z,33.24
2023-03-23T14:27:58.561Z,34.93
2023-03-23T14:28:58.593Z,31.29
2023-03-23T14:29:58.697Z,30.63
2023-03-23T14:30:58.707Z,33.13
2023-03-23T14:31:58.735Z,31.93
2023-03-23T14:32:58.814Z,30.43
2023-03-23T14:33:58.863Z,31.09
2023-03-23T14:34:58.911Z,28.40
2023-03-23T14:35:58.951Z,27.59
2023-03-23T14:36:59.024Z,26.02
2023-03-23T14:37:59.081Z,25.86
2023-03-23T14:38:59.153Z,27.54
2023-03-23T14:39:59.177Z,25.11
2023-03-23T14:40:59.235Z,25.07
2023-03-23T14:41:59.309Z,27.21
2023-03-23T14:42:59.377Z,27.44
2023-03-23T14:43:59.431Z,21.79
2023-03-23T14:44:59.455Z,22.33
2023-03-23T14:45:59.530Z,20.04
2023-03-23T14:46:59.541Z,19.71
2023-03-23T14:47:59.631Z,19.15
2023-03-23T14:48:59.687Z,17.84
2023-03-23T14:49:59.701Z,15.32
2023-03-23T14:50:59.797Z,14.52
2023-03-23T14:51:59.886Z,13.83
2023-03-23T14:52:59.892Z,12.27
2023-03-23T14:53:59.968Z,14.45
2023-03-23T14:55:00.028Z,12.68
2023-03-23T14:56:00.044Z,10.29
2023-03-23T14:57:00.099Z,10.57
2023-03-23T14:58:00.157Z,8.37
2023-03-23T14:59:00.211Z,9.60
2023-03-23T15:00:00.324Z,10.61
2023-03-23T15:01:00.355Z,10.95
2023-03-23T15:02:00.445Z,9.89
2023-03-23T15:03:00.447Z,10.27
2023-03-23T15:04:00.509Z,12.78
2023-03-23T15:05:00.569Z,14.69
2023-03-23T15:06:00.632Z,12.68
2023-03-23T15:07:00.666Z,13.24
2023-03-23T15:08:00.748Z,15.50
2023-03-23T15:09:00.786Z,16.10
2023-03-23T15:10:00.832Z,17.88
2023-03-23T15:11:00.916Z,15.18
2023-03-23T15:12:01.012Z,13.55
2023-03-23T15:13:01.061Z,11.95
2023-03-23T15:14:01.132Z,10.01
2023-03-23T15:15:01.201Z,11.40
2023-03-23T15:16:01.214Z,10.82
2023-03-23T15:17:01.255Z,11.86
2023-03-23T15:18:01.363Z,10.66
2023-03-23T15:19:01.430Z,9.46
2023-03-23T15:20:01.492Z,9.80
2023-03-23T15:21:01.520Z,10.47
2023-03-23T15:22:01.609Z,11.22
2023-03-23T15:23:01.648Z,10.99
2023-03-23T15:24:01.917Z,10.47
2023-03-23T15:25:01.786Z,9.16
2023-03-23T15:26:01.831Z,9.06
2023-03-23T15:27:01.875Z,7.58
2023-03-23T15:28:01.950Z,7.98
2023-03-23T15:29:02.012Z,6.59
2023-03-23T15:30:02.091Z,6.91
2023-03-23T15:31:03.306Z,7.56
2023-03-23T15:32:02.222Z,7.31
2023-03-23T15:33:02.258Z,6.46
2023-03-23T15:34:02.343Z,5.74
2023-03-23T15:35:12.580Z,6.08
2023-03-23T15:36:03.435Z,6.09
2023-03-23T15:38:03.453Z,6.46
2023-03-23T15:39:02.483Z,7.10
2023-03-23T15:41:02.556Z,7.75
2023-03-23T15:42:02.573Z,7.44
2023-03-23T15:43:02.579Z,6.24
2023-03-23T15:44:02.579Z,5.06
2023-03-23T15:45:02.593Z,5.46
2023-03-23T15:46:02.608Z,5.86
2023-03-23T15:47:07.836Z,5.97
2023-03-23T15:48:03.673Z,5.98
2023-03-23T15:49:02.711Z,6.06
2023-03-23T15:50:02.696Z,6.17
2023-03-23T15:51:02.739Z,6.49
2023-03-23T15:52:02.755Z,6.22
2023-03-23T15:53:02.788Z,7.48
2023-03-23T15:54:05.664Z,6.82
2023-03-23T15:55:03.781Z,6.20
2023-03-23T15:58:02.869Z,5.73
2023-03-23T15:59:02.892Z,5.97
2023-03-23T16:00:02.896Z,6.10
2023-03-23T16:01:02.934Z,6.12
2023-03-23T16:02:02.989Z,6.04
2023-03-23T16:03:03.008Z,6.37
2023-03-23T16:04:02.960Z,6.21
2023-03-23T16:05:02.985Z,6.93
2023-03-23T16:06:03.052Z,6.02
2023-03-23T16:07:03.084Z,6.57
2023-03-23T16:08:03.154Z,6.44
2023-03-23T16:09:03.200Z,6.71
2023-03-23T16:10:03.223Z,7.48
2023-03-23T16:11:03.305Z,7.79
2023-03-23T16:12:03.371Z,8.14
2023-03-23T16:13:03.485Z,6.62
2023-03-23T16:14:03.549Z,5.76
2023-03-23T16:15:03.582Z,4.86
2023-03-23T16:16:03.646Z,3.99
2023-03-23T16:17:03.769Z,3.96
2023-03-23T16:18:03.957Z,4.18
2023-03-23T16:19:03.878Z,4.28
2023-03-23T16:20:03.893Z,4.45
2023-03-23T16:21:04.011Z,4.44
2023-03-23T16:22:04.085Z,5.07
2023-03-23T16:25:04.250Z,4.76
2023-03-23T16:26:04.347Z,4.64
2023-03-23T16:27:04.380Z,5.03
2023-03-23T16:28:04.459Z,5.19
2023-03-23T16:29:13.900Z,4.40
2023-03-23T16:30:05.623Z,4.41
2023-03-23T16:31:04.580Z,4.45
2023-03-23T16:32:04.604Z,4.42
2023-03-23T16:33:04.625Z,4.68
2023-03-23T16:34:04.653Z,4.69
2023-03-23T16:35:04.668Z,4.37
2023-03-23T16:36:04.706Z,4.47
2023-03-23T16:37:04.707Z,4.31
2023-03-23T16:38:07.762Z,3.50
2023-03-23T16:41:04.787Z,3.75
2023-03-23T16:42:04.812Z,3.37
2023-03-23T16:43:08.816Z,3.02
2023-03-23T16:44:04.867Z,3.36
2023-03-23T16:45:04.887Z,3.54
2023-03-23T16:46:04.945Z,3.61
2023-03-23T16:47:04.951Z,3.59
2023-03-23T16:48:05.009Z,3.43
2023-03-23T16:49:05.031Z,3.17
2023-03-23T16:50:04.987Z,3.19
2023-03-23T16:51:05.034Z,3.37